Stone, United Kingdom
Current Conditions -  °F | °C
As of 7:50 PM on Thursday 18 Dec 2014 (Local Time) from EGOS Reporting Station
Overcast Overcast  
Wind Chill: 13°   Ceiling: 1900
Heat Index: 13°   Visibility: 6mi
Dew Point: 10°   Wind: 22mph
Humidity: 82%   Direction: 230°SW
Pressure: 29.65"   Gusts: NA
Location:  52.91°N, 2.15°W
Report Text: EGOS 181950Z AUTO 23019KT 9999 OVC019/// 13/10 Q1004
Loading
Personal Weather Stations






























Interactive Weather Map New forecast layout! Learn more

10-Day Weather Forecast

Advertisements
Track Severe Weather on mobile